createdAt,value
2023-01-23T00:01:30.283Z,-1.40
2023-01-23T00:03:58.251Z,-1.40
2023-01-23T00:06:25.903Z,-1.40
2023-01-23T00:08:52.911Z,-1.40
2023-01-23T00:11:22.525Z,-1.30
2023-01-23T00:13:52.182Z,-1.30
2023-01-23T00:16:25.483Z,-1.30
2023-01-23T00:18:53.205Z,-1.30
2023-01-23T00:21:23.346Z,-1.40
2023-01-23T00:23:52.921Z,-1.50
2023-01-23T00:26:22.977Z,-1.50
2023-01-23T00:28:50.804Z,-1.60
2023-01-23T00:31:26.885Z,-1.60
2023-01-23T00:33:56.396Z,-1.60
2023-01-23T00:36:24.345Z,-1.50
2023-01-23T00:38:53.469Z,-1.60
2023-01-23T00:41:20.337Z,-1.50
2023-01-23T00:43:48.377Z,-1.60
2023-01-23T00:46:15.310Z,-1.60
2023-01-23T00:48:42.207Z,-1.60
2023-01-23T00:51:09.180Z,-1.50
2023-01-23T00:53:36.284Z,-1.50
2023-01-23T00:56:05.811Z,-1.50
2023-01-23T00:58:32.777Z,-1.50
2023-01-23T01:00:59.696Z,-1.60
2023-01-23T01:03:26.680Z,-1.60
2023-01-23T01:05:53.658Z,-1.60
2023-01-23T01:08:20.936Z,-1.50
2023-01-23T01:10:47.860Z,-1.60
2023-01-23T01:13:21.383Z,-1.60
2023-01-23T01:15:50.385Z,-1.60
2023-01-23T01:18:18.271Z,-1.60
2023-01-23T01:20:45.393Z,-1.50
2023-01-23T01:23:12.888Z,-1.60
2023-01-23T01:25:42.258Z,-1.60
2023-01-23T01:28:09.153Z,-1.50
2023-01-23T01:30:37.129Z,-1.50
2023-01-23T01:33:04.531Z,-1.50
2023-01-23T01:35:32.276Z,-1.30
2023-01-23T01:37:59.592Z,-1.40
2023-01-23T01:40:35.353Z,-1.40
2023-01-23T01:43:07.034Z,-1.50
2023-01-23T01:46:04.787Z,-1.60
2023-01-23T01:48:43.346Z,-1.60
2023-01-23T01:51:17.005Z,-1.60
2023-01-23T01:53:47.048Z,-1.60
2023-01-23T01:56:15.428Z,-1.60
2023-01-23T01:58:46.021Z,-1.60
2023-01-23T02:01:13.590Z,-1.60
2023-01-23T02:03:43.362Z,-1.60
2023-01-23T02:06:10.360Z,-1.50
2023-01-23T02:09:03.985Z,-1.60
2023-01-23T02:11:31.094Z,-1.50
2023-01-23T02:13:58.060Z,-1.40
2023-01-23T02:16:32.874Z,-1.40
2023-01-23T02:19:07.303Z,-1.40
2023-01-23T02:21:36.779Z,-1.40
2023-01-23T02:24:09.681Z,-1.40
2023-01-23T02:26:41.144Z,-1.30
2023-01-23T02:29:08.735Z,-1.40
2023-01-23T02:31:37.606Z,-1.50
2023-01-23T02:34:05.319Z,-1.50
2023-01-23T02:36:34.810Z,-1.50
2023-01-23T02:39:06.922Z,-1.50
2023-01-23T02:41:42.669Z,-1.50
2023-01-23T02:44:34.206Z,-1.60
2023-01-23T02:47:05.038Z,-1.50
2023-01-23T02:49:31.863Z,-1.60
2023-01-23T02:51:58.844Z,-1.50
2023-01-23T02:54:26.191Z,-1.50
2023-01-23T02:56:53.152Z,-1.50
2023-01-23T02:59:38.486Z,-1.50
2023-01-23T03:02:06.358Z,-1.60
2023-01-23T03:04:33.383Z,-1.60
2023-01-23T03:07:00.481Z,-1.70
2023-01-23T03:09:28.124Z,-1.70
2023-01-23T03:11:57.519Z,-1.60
2023-01-23T03:14:25.787Z,-1.60
2023-01-23T03:16:54.119Z,-1.60
2023-01-23T03:19:24.507Z,-1.60
2023-01-23T03:21:51.945Z,-1.50
2023-01-23T03:24:20.012Z,-1.60
2023-01-23T03:26:48.705Z,-1.60
2023-01-23T03:29:43.277Z,-1.60
2023-01-23T03:32:15.564Z,-1.60
2023-01-23T03:34:43.290Z,-1.60
2023-01-23T03:37:12.081Z,-1.60
2023-01-23T03:39:57.421Z,-1.60
2023-01-23T03:42:24.327Z,-1.70
2023-01-23T03:44:52.834Z,-1.60
2023-01-23T03:47:22.273Z,-1.70
2023-01-23T03:49:49.195Z,-1.70
2023-01-23T03:52:16.119Z,-1.70
2023-01-23T03:54:43.106Z,-1.70
2023-01-23T03:57:10.413Z,-1.50
2023-01-23T03:59:37.407Z,-1.60
2023-01-23T04:02:05.172Z,-1.60
2023-01-23T04:04:35.754Z,-1.60
2023-01-23T04:07:03.721Z,-1.70
2023-01-23T04:09:30.690Z,-1.70
2023-01-23T04:11:59.372Z,-1.70
2023-01-23T04:14:27.920Z,-1.60
2023-01-23T04:16:54.957Z,-1.60
2023-01-23T04:19:22.029Z,-1.60
2023-01-23T04:21:49.872Z,-1.60
2023-01-23T04:24:17.743Z,-1.60
2023-01-23T04:26:45.076Z,-1.60
2023-01-23T04:29:12.566Z,-1.70
2023-01-23T04:31:39.808Z,-1.60
2023-01-23T04:34:06.765Z,-1.60
2023-01-23T04:36:33.647Z,-1.60
2023-01-23T04:39:00.640Z,-1.60
2023-01-23T04:41:30.333Z,-1.60
2023-01-23T04:44:18.670Z,-1.60
2023-01-23T04:46:46.483Z,-1.60
2023-01-23T04:49:13.554Z,-1.50
2023-01-23T04:51:40.870Z,-1.50
2023-01-23T04:54:07.756Z,-1.60
2023-01-23T04:56:37.163Z,-1.60
2023-01-23T04:59:04.237Z,-1.50
2023-01-23T05:01:31.238Z,-1.40
2023-01-23T05:03:58.287Z,-1.40
2023-01-23T05:06:25.494Z,-1.50
2023-01-23T05:08:57.085Z,-1.40
2023-01-23T05:11:24.578Z,-1.40
2023-01-23T05:13:51.541Z,-1.50
2023-01-23T05:16:18.468Z,-1.50
2023-01-23T05:18:45.350Z,-1.50
2023-01-23T05:21:12.346Z,-1.40
2023-01-23T05:23:41.417Z,-1.40
2023-01-23T05:26:08.445Z,-1.40
2023-01-23T05:28:35.423Z,-1.40
2023-01-23T05:31:02.446Z,-1.40
2023-01-23T05:33:29.492Z,-1.40
2023-01-23T05:36:00.531Z,-1.50
2023-01-23T05:38:27.583Z,-1.50
2023-01-23T05:40:56.717Z,-1.50
2023-01-23T05:43:23.608Z,-1.50
2023-01-23T05:45:50.511Z,-1.50
2023-01-23T05:48:19.773Z,-1.50
2023-01-23T05:50:46.734Z,-1.40
2023-01-23T05:53:13.706Z,-1.50
2023-01-23T05:55:40.745Z,-1.50
2023-01-23T05:58:07.699Z,-1.50
2023-01-23T06:00:35.195Z,-1.50
2023-01-23T06:03:02.160Z,-1.50
2023-01-23T06:05:29.286Z,-1.50
2023-01-23T06:07:56.164Z,-1.50
2023-01-23T06:10:23.091Z,-1.50
2023-01-23T06:12:50.096Z,-1.50
2023-01-23T06:15:17.120Z,-1.40
2023-01-23T06:17:44.065Z,-1.50
2023-01-23T06:20:12.638Z,-1.50
2023-01-23T06:22:39.538Z,-1.40
2023-01-23T06:25:07.013Z,-1.50
2023-01-23T06:27:33.961Z,-1.50
2023-01-23T06:30:00.836Z,-1.40
2023-01-23T06:32:27.800Z,-1.40
2023-01-23T06:34:57.298Z,-1.30
2023-01-23T06:37:24.199Z,-1.30
2023-01-23T06:39:53.363Z,-1.30
2023-01-23T06:42:22.724Z,-1.30
2023-01-23T06:44:49.714Z,-1.30
2023-01-23T06:47:16.790Z,-1.30
2023-01-23T06:49:43.767Z,-1.30
2023-01-23T06:52:13.169Z,-1.30
2023-01-23T06:54:40.053Z,-1.30
2023-01-23T06:57:06.960Z,-1.30
2023-01-23T06:59:33.907Z,-1.20
2023-01-23T07:02:03.095Z,-1.30
2023-01-23T07:04:30.001Z,-1.20
2023-01-23T07:06:56.973Z,-1.30
2023-01-23T07:09:23.879Z,-1.20
2023-01-23T07:11:55.771Z,-1.20
2023-01-23T07:14:22.955Z,-1.20
2023-01-23T07:16:49.872Z,-1.20
2023-01-23T07:19:16.777Z,-1.10
2023-01-23T07:21:43.662Z,-1.20
2023-01-23T07:24:18.217Z,-1.10
2023-01-23T07:26:45.145Z,-1.10
2023-01-23T07:29:14.383Z,-1.00
2023-01-23T07:31:41.294Z,-1.00
2023-01-23T07:34:08.188Z,-1.00
2023-01-23T07:36:35.069Z,-1.00
2023-01-23T07:39:04.242Z,-1.00
2023-01-23T07:41:31.199Z,-1.00
2023-01-23T07:43:58.067Z,-1.00
2023-01-23T07:46:26.936Z,-1.00
2023-01-23T07:48:53.933Z,-1.00
2023-01-23T07:51:23.071Z,-1.00
2023-01-23T07:53:50.009Z,-1.00
2023-01-23T07:56:19.360Z,-1.00
2023-01-23T07:58:50.610Z,-1.10
2023-01-23T08:01:20.033Z,-1.10
2023-01-23T08:03:49.416Z,-1.10
2023-01-23T08:06:16.357Z,-1.10
2023-01-23T08:08:43.285Z,-1.00
2023-01-23T08:11:12.711Z,-1.00
2023-01-23T08:13:39.643Z,-1.00
2023-01-23T08:16:07.868Z,-1.00
2023-01-23T08:18:35.227Z,-1.00
2023-01-23T08:21:03.469Z,-1.10
2023-01-23T08:23:36.254Z,-1.00
2023-01-23T08:26:08.755Z,-1.10
2023-01-23T08:28:38.106Z,-1.00
2023-01-23T08:31:07.979Z,-1.00
2023-01-23T08:33:37.847Z,-1.00
2023-01-23T08:36:06.701Z,-1.00
2023-01-23T08:38:33.843Z,-1.00
2023-01-23T08:41:02.329Z,-1.00
2023-01-23T08:43:35.093Z,-0.90
2023-01-23T08:46:02.196Z,-0.90
2023-01-23T08:48:29.241Z,-0.90
2023-01-23T08:51:03.627Z,-0.90
2023-01-23T08:53:31.302Z,-0.90
2023-01-23T08:56:07.342Z,-1.00
2023-01-23T08:58:34.864Z,-0.90
2023-01-23T09:01:02.024Z,-0.80
2023-01-23T09:03:31.240Z,-0.80
2023-01-23T09:06:01.958Z,-0.80
2023-01-23T09:08:31.095Z,-0.80
2023-01-23T09:11:10.089Z,-0.80
2023-01-23T09:13:39.660Z,-0.80
2023-01-23T09:16:09.961Z,-0.90
2023-01-23T09:18:39.258Z,-0.90
2023-01-23T09:21:11.534Z,-0.90
2023-01-23T09:23:38.672Z,-0.90
2023-01-23T09:26:07.510Z,-0.90
2023-01-23T09:28:36.118Z,-0.80
2023-01-23T09:31:07.404Z,-0.90
2023-01-23T09:33:35.609Z,-0.90
2023-01-23T09:36:03.937Z,-0.90
2023-01-23T09:38:30.864Z,-0.80
2023-01-23T09:40:59.854Z,-0.90
2023-01-23T09:43:32.850Z,-0.80
2023-01-23T09:46:12.987Z,-0.70
2023-01-23T09:48:45.602Z,-0.80
2023-01-23T09:51:21.023Z,-0.70
2023-01-23T09:53:48.292Z,-0.70
2023-01-23T09:56:25.072Z,-0.70
2023-01-23T09:58:59.865Z,-0.70
2023-01-23T10:01:30.248Z,-0.70
2023-01-23T10:04:00.542Z,-0.80
2023-01-23T10:06:33.955Z,-0.80
2023-01-23T10:09:36.197Z,-0.80
2023-01-23T10:12:32.493Z,-0.70
2023-01-23T10:15:18.917Z,-0.60
2023-01-23T10:18:00.575Z,-0.60
2023-01-23T10:20:42.619Z,-0.60
2023-01-23T10:23:45.793Z,-0.60
2023-01-23T10:26:26.643Z,-0.60
2023-01-23T10:29:03.369Z,-0.60
2023-01-23T10:31:38.796Z,-0.60
2023-01-23T10:34:11.409Z,-0.50
2023-01-23T10:37:15.630Z,-0.40
2023-01-23T10:39:59.478Z,-0.30
2023-01-23T10:42:27.968Z,-0.30
2023-01-23T10:44:55.116Z,-0.20
2023-01-23T10:47:37.133Z,-0.20
2023-01-23T10:50:06.231Z,-0.20
2023-01-23T10:52:33.120Z,-0.20
2023-01-23T10:55:03.923Z,-0.20
2023-01-23T10:57:44.810Z,-0.20
2023-01-23T11:00:47.169Z,-0.20
2023-01-23T11:03:26.074Z,-0.20
2023-01-23T11:06:20.827Z,-0.20
2023-01-23T11:09:02.787Z,-0.20
2023-01-23T11:11:32.199Z,-0.20
2023-01-23T11:14:16.884Z,-0.30
2023-01-23T11:16:44.173Z,-0.30
2023-01-23T11:19:15.697Z,-0.20
2023-01-23T11:21:51.359Z,-0.30
2023-01-23T11:24:41.216Z,-0.30
2023-01-23T11:27:30.093Z,-0.30
2023-01-23T11:30:09.279Z,-0.30
2023-01-23T11:32:47.611Z,-0.30
2023-01-23T11:35:20.952Z,-0.20
2023-01-23T11:37:48.003Z,-0.20
2023-01-23T11:40:19.612Z,-0.30
2023-01-23T11:42:47.571Z,-0.30
2023-01-23T11:45:26.611Z,-0.30
2023-01-23T11:48:11.532Z,-0.30
2023-01-23T11:51:07.287Z,-0.30
2023-01-23T11:53:50.976Z,-0.30
2023-01-23T11:56:52.952Z,-0.30
2023-01-23T11:59:43.833Z,-0.30
2023-01-23T12:02:31.404Z,-0.30
2023-01-23T12:05:32.497Z,-0.40
2023-01-23T12:08:02.243Z,-0.30
2023-01-23T12:11:16.446Z,-0.30
2023-01-23T12:13:56.493Z,-0.30
2023-01-23T12:16:56.057Z,-0.30
2023-01-23T12:19:34.629Z,-0.30
2023-01-23T12:22:16.475Z,-0.30
2023-01-23T12:25:25.867Z,-0.30
2023-01-23T12:28:01.897Z,-0.30
2023-01-23T12:30:55.571Z,-0.20
2023-01-23T12:33:53.292Z,-0.20
2023-01-23T12:37:08.516Z,-0.20
2023-01-23T12:39:56.064Z,-0.30
2023-01-23T12:42:38.150Z,-0.40
2023-01-23T12:45:10.807Z,-0.40
2023-01-23T12:48:01.053Z,-0.50
2023-01-23T12:50:43.642Z,-0.50
2023-01-23T12:53:16.106Z,-0.50
2023-01-23T12:55:58.330Z,-0.50
2023-01-23T12:58:29.362Z,-0.50
2023-01-23T13:01:38.438Z,-0.40
2023-01-23T13:04:36.091Z,-0.40
2023-01-23T13:07:09.011Z,-0.40
2023-01-23T13:10:13.693Z,-0.40
2023-01-23T13:12:44.045Z,-0.40
2023-01-23T13:15:19.025Z,-0.40
2023-01-23T13:17:58.178Z,-0.40
2023-01-23T13:20:50.877Z,-0.50
2023-01-23T13:23:37.879Z,-0.50
2023-01-23T13:26:16.885Z,-0.60
2023-01-23T13:28:55.271Z,-0.60
2023-01-23T13:31:36.702Z,-0.60
2023-01-23T13:34:18.058Z,-0.60
2023-01-23T13:36:48.331Z,-0.60
2023-01-23T13:39:18.023Z,-0.50
2023-01-23T13:41:48.079Z,-0.50
2023-01-23T13:44:41.781Z,-0.50
2023-01-23T14:22:20.032Z,-0.50
2023-01-23T14:24:48.146Z,-0.50
2023-01-23T14:27:51.268Z,-0.50
2023-01-23T14:30:24.809Z,-0.50
2023-01-23T14:32:51.809Z,-0.50
2023-01-23T14:35:30.051Z,-0.50
2023-01-23T14:38:04.925Z,-0.50
2023-01-23T14:40:43.439Z,-0.50
2023-01-23T14:43:26.852Z,-0.50
2023-01-23T14:46:06.494Z,-0.50
2023-01-23T14:48:38.942Z,-0.60
2023-01-23T14:51:17.974Z,-0.60
2023-01-23T14:54:02.040Z,-0.60
2023-01-23T14:56:36.947Z,-0.60
2023-01-23T14:59:15.877Z,-0.60
2023-01-23T15:01:42.964Z,-0.60
2023-01-23T15:04:28.358Z,-0.60
2023-01-23T15:07:02.640Z,-0.60
2023-01-23T15:09:37.088Z,-0.60
2023-01-23T15:12:08.459Z,-0.70
2023-01-23T15:14:40.518Z,-0.70
2023-01-23T15:17:27.725Z,-0.70
2023-01-23T15:19:59.544Z,-0.70
2023-01-23T15:22:28.649Z,-0.70
2023-01-23T15:24:56.072Z,-0.70
2023-01-23T15:27:27.647Z,-0.70
2023-01-23T15:30:33.100Z,-0.70
2023-01-23T15:33:07.410Z,-0.70
2023-01-23T15:35:35.775Z,-0.80
2023-01-23T15:38:08.699Z,-0.70
2023-01-23T15:40:38.306Z,-0.70
2023-01-23T15:43:19.164Z,-0.70
2023-01-23T15:45:46.932Z,-0.80
2023-01-23T15:48:13.904Z,-0.80
2023-01-23T15:50:41.321Z,-0.80
2023-01-23T15:53:15.069Z,-0.90
2023-01-23T15:55:42.035Z,-1.00
2023-01-23T15:58:17.343Z,-1.00
2023-01-23T16:00:46.666Z,-1.00
2023-01-23T16:03:14.966Z,-1.00
2023-01-23T16:05:42.302Z,-1.10
2023-01-23T16:08:20.292Z,-1.20
2023-01-23T16:10:47.495Z,-1.20
2023-01-23T16:13:14.711Z,-1.20
2023-01-23T16:15:42.107Z,-1.10
2023-01-23T16:18:10.177Z,-1.20
2023-01-23T16:20:39.634Z,-1.20
2023-01-23T16:23:29.250Z,-1.10
2023-01-23T16:25:58.615Z,-1.30
2023-01-23T16:28:29.506Z,-1.20
2023-01-23T16:30:56.560Z,-1.30
2023-01-23T16:33:24.536Z,-1.30
2023-01-23T16:35:52.033Z,-1.30
2023-01-23T16:38:25.097Z,-1.30
2023-01-23T16:40:53.531Z,-1.40
2023-01-23T16:43:21.767Z,-1.40
2023-01-23T16:45:49.130Z,-1.40
2023-01-23T16:48:26.345Z,-1.30
2023-01-23T16:50:58.996Z,-1.30
2023-01-23T16:53:30.676Z,-1.30
2023-01-23T16:56:00.515Z,-1.30
2023-01-23T16:58:32.565Z,-1.30
2023-01-23T17:01:03.780Z,-1.30
2023-01-23T17:03:34.743Z,-1.20
2023-01-23T17:06:01.782Z,-1.30
2023-01-23T17:08:28.671Z,-1.20
2023-01-23T17:11:03.317Z,-1.30
2023-01-23T17:13:33.785Z,-1.30
2023-01-23T17:16:02.689Z,-1.30
2023-01-23T17:18:32.891Z,-1.30
2023-01-23T17:21:00.354Z,-1.30
2023-01-23T17:23:27.547Z,-1.30
2023-01-23T17:26:00.764Z,-1.50
2023-01-23T17:28:28.897Z,-1.50
2023-01-23T17:30:58.114Z,-1.50
2023-01-23T17:33:27.740Z,-1.60
2023-01-23T17:35:56.180Z,-1.50
2023-01-23T17:38:31.088Z,-1.50
2023-01-23T17:40:58.052Z,-1.50
2023-01-23T17:43:24.968Z,-1.50
2023-01-23T17:45:52.350Z,-1.60
2023-01-23T17:48:29.148Z,-1.60
2023-01-23T17:50:56.545Z,-1.60
2023-01-23T17:53:24.083Z,-1.60
2023-01-23T17:55:52.888Z,-1.60
2023-01-23T17:58:20.645Z,-1.60
2023-01-23T18:00:50.889Z,-1.60
2023-01-23T18:03:21.821Z,-1.50
2023-01-23T18:05:51.009Z,-1.50
2023-01-23T18:08:20.326Z,-1.60
2023-01-23T18:10:51.375Z,-1.60
2023-01-23T18:13:53.433Z,-1.70
2023-01-23T18:16:27.207Z,-1.70
2023-01-23T18:19:17.114Z,-1.70
2023-01-23T18:21:46.007Z,-1.70
2023-01-23T18:24:38.552Z,-1.70
2023-01-23T18:27:09.940Z,-1.70
2023-01-23T18:29:42.765Z,-1.80
2023-01-23T18:32:42.058Z,-1.80
2023-01-23T18:35:46.142Z,-1.80
2023-01-23T18:38:31.404Z,-1.70
2023-01-23T18:41:23.865Z,-1.70
2023-01-23T18:44:06.209Z,-1.70
2023-01-23T18:46:33.687Z,-1.70
2023-01-23T18:49:00.898Z,-1.60
2023-01-23T18:52:00.517Z,-1.60
2023-01-23T18:54:37.930Z,-1.60
2023-01-23T18:57:07.728Z,-1.70
2023-01-23T19:00:15.104Z,-1.80
2023-01-23T19:02:53.045Z,-1.80
2023-01-23T19:05:33.275Z,-1.70
2023-01-23T19:08:05.091Z,-1.70
2023-01-23T19:10:48.892Z,-1.70
2023-01-23T19:13:30.019Z,-1.60
2023-01-23T19:15:59.773Z,-1.60
2023-01-23T19:18:39.370Z,-1.70
2023-01-23T19:21:14.037Z,-1.70
2023-01-23T19:23:56.999Z,-1.90
2023-01-23T19:26:27.734Z,-1.90
2023-01-23T19:28:56.298Z,-1.90
2023-01-23T19:31:27.056Z,-1.80
2023-01-23T19:33:57.378Z,-1.80
2023-01-23T19:36:25.063Z,-1.80
2023-01-23T19:38:53.241Z,-1.80
2023-01-23T19:41:26.888Z,-1.90
2023-01-23T19:43:55.627Z,-1.80
2023-01-23T19:46:27.045Z,-1.80
2023-01-23T19:48:55.692Z,-1.80
2023-01-23T19:51:24.244Z,-1.90
2023-01-23T19:53:51.193Z,-2.00
2023-01-23T19:56:18.558Z,-2.10
2023-01-23T19:58:46.419Z,-2.20
2023-01-23T20:01:35.797Z,-2.20
2023-01-23T20:04:04.233Z,-2.30
2023-01-23T20:06:33.179Z,-2.30
2023-01-23T20:09:00.717Z,-2.20
2023-01-23T20:11:27.697Z,-2.20
2023-01-23T20:13:54.753Z,-2.10
2023-01-23T20:16:25.164Z,-2.10
2023-01-23T20:18:54.210Z,-2.10
2023-01-23T20:21:25.236Z,-2.10
2023-01-23T20:23:52.414Z,-2.00
2023-01-23T20:26:23.437Z,-2.00
2023-01-23T20:28:53.468Z,-2.10
2023-01-23T20:31:20.905Z,-2.10
2023-01-23T20:33:48.090Z,-2.20
2023-01-23T20:36:16.051Z,-2.10
2023-01-23T20:38:43.179Z,-2.10
2023-01-23T20:41:17.476Z,-2.10
2023-01-23T20:43:44.849Z,-2.10
2023-01-23T20:46:14.220Z,-2.10
2023-01-23T20:48:46.421Z,-2.10
2023-01-23T20:51:15.680Z,-2.10
2023-01-23T20:53:43.113Z,-2.00
2023-01-23T20:56:19.987Z,-2.10
2023-01-23T20:59:07.712Z,-2.10
2023-01-23T21:01:55.768Z,-2.00
2023-01-23T21:04:25.241Z,-2.00
2023-01-23T21:06:52.572Z,-2.00
2023-01-23T21:09:19.575Z,-1.90
2023-01-23T21:11:47.377Z,-2.00
2023-01-23T21:14:14.351Z,-2.00
2023-01-23T21:16:41.266Z,-2.00
2023-01-23T21:19:08.206Z,-2.00
2023-01-23T21:21:35.630Z,-2.00
2023-01-23T21:24:02.661Z,-1.90
2023-01-23T21:26:30.118Z,-1.90
2023-01-23T21:28:58.550Z,-1.90
2023-01-23T21:31:33.263Z,-1.90
2023-01-23T21:34:01.980Z,-1.90
2023-01-23T21:36:29.252Z,-1.90
2023-01-23T21:38:56.643Z,-2.00
2023-01-23T21:41:23.993Z,-2.10
2023-01-23T21:43:50.903Z,-2.20
2023-01-23T21:46:18.225Z,-2.30
2023-01-23T21:48:45.213Z,-2.30
2023-01-23T21:51:13.619Z,-2.30
2023-01-23T21:53:42.653Z,-2.40
2023-01-23T21:56:10.398Z,-2.40
2023-01-23T21:58:37.726Z,-2.40
2023-01-23T22:01:30.562Z,-2.30
2023-01-23T22:04:05.329Z,-2.30
2023-01-23T22:06:33.547Z,-2.30
2023-01-23T22:09:00.732Z,-2.20
2023-01-23T22:11:28.115Z,-2.20
2023-01-23T22:13:55.646Z,-2.20
2023-01-23T22:16:32.092Z,-2.20
2023-01-23T22:19:07.335Z,-2.20
2023-01-23T22:21:34.413Z,-2.20
2023-01-23T22:24:01.515Z,-2.30
2023-01-23T22:26:28.588Z,-2.20
2023-01-23T22:28:55.593Z,-2.20
2023-01-23T22:31:22.576Z,-2.30
2023-01-23T22:33:49.634Z,-2.30
2023-01-23T22:36:19.639Z,-2.30
2023-01-23T22:38:53.999Z,-2.40
2023-01-23T22:41:21.313Z,-2.40
2023-01-23T22:43:56.848Z,-2.50
2023-01-23T22:46:24.127Z,-2.50
2023-01-23T22:48:51.612Z,-2.50
2023-01-23T22:51:26.071Z,-2.50
2023-01-23T22:53:58.268Z,-2.50
2023-01-23T22:56:26.462Z,-2.60
2023-01-23T22:58:55.044Z,-2.60
2023-01-23T23:01:28.862Z,-2.60
2023-01-23T23:04:00.071Z,-2.60
2023-01-23T23:06:27.499Z,-2.60
2023-01-23T23:08:54.898Z,-2.60
2023-01-23T23:11:22.973Z,-2.50
2023-01-23T23:13:50.355Z,-2.50
2023-01-23T23:16:19.945Z,-2.50
2023-01-23T23:18:48.655Z,-2.50
2023-01-23T23:21:18.112Z,-2.50
2023-01-23T23:23:45.485Z,-2.60
2023-01-23T23:26:13.254Z,-2.50
2023-01-23T23:28:40.582Z,-2.50
2023-01-23T23:31:09.343Z,-2.50
2023-01-23T23:33:38.970Z,-2.50
2023-01-23T23:36:06.826Z,-2.50
2023-01-23T23:38:33.784Z,-2.50
2023-01-23T23:41:12.010Z,-2.50
2023-01-23T23:43:39.035Z,-2.60
2023-01-23T23:46:07.901Z,-2.50
2023-01-23T23:48:36.511Z,-2.50
2023-01-23T23:51:05.997Z,-2.50
2023-01-23T23:53:33.674Z,-2.50
2023-01-23T23:56:00.618Z,-2.50
2023-01-23T23:58:27.587Z,-2.50
